Terminal Aerodrome Forecast
Issued by NWS Medford, OR

Home | Current Version | Previous Version | Text Only | Print | Product List | Glossary On
Versions: 1 2 3 4 5 6 7 8 9 10 11 12 13 14
000
FTUS46 KMFR 271340 AAB
TAFMFR
TAF AMD
KMFR 271340Z 2714/2812 00000KT P6SM OVC007
     FM271500 00000KT 1/2SM FZFG BKN002 OVC008
     FM271800 VRB02KT 6SM BR BKN008 BKN150
     FM272100 VRB02KT P6SM BKN050 BKN120
     FM272300 29003KT P6SM VCSH BKN040 OVC060
     FM280300 VRB03KT P6SM -RA SCT015 BKN030 OVC050
     FM280600 VRB03KT P6SM -RA BKN015 OVC030=

USA.gov is the U.S. government's official web portal to all federal, state and local government web resources and services.